YRO weather

Ottawa / Rockcliffe Airport
Ottawa, Ontario, Canada

Public forecast

Using degrees Celsius for public forecast. Weather courtesy of forecast.io.

Closest aviation weather report (METAR) to Ottawa / Rockcliffe Airport

Closest report is Ottawa / Gatineau Airport, 5.1 nm (9.4 km) NE. Retrieved 2020/07/03 13:00 UTC (44 minutes ago):

CYND 031300Z 09004KT 15SM FEW050 SCT170 BKN250 24/20 A2991 RMK SC1AC3CI2 SLP129 DENSITY ALT 1300FT

Closest aviation forecast (TAF) to Ottawa / Rockcliffe Airport

Closest forecast is Ottawa / Gatineau Airport, 5.1 nm (9.4 km) NE. Retrieved 2020/07/03 13:00 UTC (44 minutes ago):

TAF CYND 031238Z 0313/0401 VRB03KT P6SM FEW050 BKN180 FM031600 VRB03KT P6SM BKN050 TEMPO 0316/0401 P6SM -SHRA PROB30 0318/0401 VRB15G25KT 2SM TSRA BR BKN020 OVC050CB RMK NXT FCST BY 031800Z